sensor_id;sensor_type;location;lat;lon;timestamp;P1;durP1;ratioP1;P2;durP2;ratioP2
9597;SDS011;4837;50.890;4.724;2024-01-16T00:01:56;7.07;;;3.63;;
9597;SDS011;4837;50.890;4.724;2024-01-16T00:04:22;8.17;;;3.80;;
9597;SDS011;4837;50.890;4.724;2024-01-16T00:06:48;12.40;;;4.30;;
9597;SDS011;4837;50.890;4.724;2024-01-16T00:09:14;11.93;;;4.17;;
9597;SDS011;4837;50.890;4.724;2024-01-16T00:11:41;9.00;;;3.63;;
9597;SDS011;4837;50.890;4.724;2024-01-16T00:14:07;14.20;;;4.47;;
9597;SDS011;4837;50.890;4.724;2024-01-16T00:16:33;7.70;;;3.83;;
9597;SDS011;4837;50.890;4.724;2024-01-16T00:18:59;15.33;;;4.07;;
9597;SDS011;4837;50.890;4.724;2024-01-16T00:21:25;10.60;;;3.80;;
9597;SDS011;4837;50.890;4.724;2024-01-16T00:23:52;8.07;;;3.23;;
9597;SDS011;4837;50.890;4.724;2024-01-16T00:26:22;9.30;;;3.80;;
9597;SDS011;4837;50.890;4.724;2024-01-16T00:28:48;7.33;;;3.73;;
9597;SDS011;4837;50.890;4.724;2024-01-16T00:31:14;9.13;;;3.77;;
9597;SDS011;4837;50.890;4.724;2024-01-16T00:33:40;11.40;;;4.07;;
9597;SDS011;4837;50.890;4.724;2024-01-16T00:36:06;10.30;;;4.03;;
9597;SDS011;4837;50.890;4.724;2024-01-16T00:38:33;13.37;;;3.60;;
9597;SDS011;4837;50.890;4.724;2024-01-16T00:40:59;7.60;;;3.27;;
9597;SDS011;4837;50.890;4.724;2024-01-16T00:43:25;10.00;;;3.40;;
9597;SDS011;4837;50.890;4.724;2024-01-16T00:45:51;10.00;;;3.60;;
9597;SDS011;4837;50.890;4.724;2024-01-16T00:48:18;11.67;;;3.63;;
9597;SDS011;4837;50.890;4.724;2024-01-16T00:50:46;10.03;;;3.57;;
9597;SDS011;4837;50.890;4.724;2024-01-16T00:53:15;5.70;;;3.40;;
9597;SDS011;4837;50.890;4.724;2024-01-16T00:55:42;7.10;;;3.87;;
9597;SDS011;4837;50.890;4.724;2024-01-16T00:58:08;11.53;;;4.00;;
9597;SDS011;4837;50.890;4.724;2024-01-16T01:00:34;9.97;;;3.73;;
9597;SDS011;4837;50.890;4.724;2024-01-16T01:03:02;12.90;;;4.37;;
9597;SDS011;4837;50.890;4.724;2024-01-16T01:05:29;7.83;;;3.80;;
9597;SDS011;4837;50.890;4.724;2024-01-16T01:07:55;10.13;;;4.10;;
9597;SDS011;4837;50.890;4.724;2024-01-16T01:10:22;9.83;;;4.20;;
9597;SDS011;4837;50.890;4.724;2024-01-16T01:12:48;10.17;;;4.17;;
9597;SDS011;4837;50.890;4.724;2024-01-16T01:15:14;7.77;;;4.00;;
9597;SDS011;4837;50.890;4.724;2024-01-16T01:17:41;10.80;;;3.67;;
9597;SDS011;4837;50.890;4.724;2024-01-16T01:20:07;6.97;;;3.47;;
9597;SDS011;4837;50.890;4.724;2024-01-16T01:22:34;8.10;;;3.27;;
9597;SDS011;4837;50.890;4.724;2024-01-16T01:25:00;6.13;;;3.67;;
9597;SDS011;4837;50.890;4.724;2024-01-16T01:27:26;10.20;;;3.90;;
9597;SDS011;4837;50.890;4.724;2024-01-16T01:29:52;11.90;;;3.73;;
9597;SDS011;4837;50.890;4.724;2024-01-16T01:32:19;8.80;;;3.87;;
9597;SDS011;4837;50.890;4.724;2024-01-16T01:34:45;7.27;;;3.63;;
9597;SDS011;4837;50.890;4.724;2024-01-16T01:37:11;11.13;;;3.77;;
9597;SDS011;4837;50.890;4.724;2024-01-16T01:39:37;11.80;;;3.47;;
9597;SDS011;4837;50.890;4.724;2024-01-16T01:42:03;12.30;;;4.10;;
9597;SDS011;4837;50.890;4.724;2024-01-16T01:44:29;9.00;;;3.13;;
9597;SDS011;4837;50.890;4.724;2024-01-16T01:46:55;5.93;;;3.17;;
9597;SDS011;4837;50.890;4.724;2024-01-16T01:49:22;8.43;;;3.90;;
9597;SDS011;4837;50.890;4.724;2024-01-16T01:51:49;6.23;;;3.37;;
9597;SDS011;4837;50.890;4.724;2024-01-16T01:54:15;8.83;;;3.80;;
9597;SDS011;4837;50.890;4.724;2024-01-16T01:56:44;8.17;;;3.37;;
9597;SDS011;4837;50.890;4.724;2024-01-16T01:59:10;9.67;;;3.17;;
9597;SDS011;4837;50.890;4.724;2024-01-16T02:01:37;9.17;;;3.97;;
9597;SDS011;4837;50.890;4.724;2024-01-16T02:04:04;6.77;;;4.00;;
9597;SDS011;4837;50.890;4.724;2024-01-16T02:06:30;10.30;;;3.87;;
9597;SDS011;4837;50.890;4.724;2024-01-16T02:08:56;7.33;;;4.00;;
9597;SDS011;4837;50.890;4.724;2024-01-16T02:11:22;8.03;;;3.50;;
9597;SDS011;4837;50.890;4.724;2024-01-16T02:13:48;6.60;;;3.50;;
9597;SDS011;4837;50.890;4.724;2024-01-16T02:16:18;10.27;;;4.27;;
9597;SDS011;4837;50.890;4.724;2024-01-16T02:18:45;7.93;;;3.70;;
9597;SDS011;4837;50.890;4.724;2024-01-16T02:21:11;9.97;;;3.43;;
9597;SDS011;4837;50.890;4.724;2024-01-16T02:23:38;10.33;;;3.63;;
9597;SDS011;4837;50.890;4.724;2024-01-16T02:26:04;9.20;;;4.07;;
9597;SDS011;4837;50.890;4.724;2024-01-16T02:28:30;9.37;;;3.90;;
9597;SDS011;4837;50.890;4.724;2024-01-16T02:30:57;8.47;;;3.47;;
9597;SDS011;4837;50.890;4.724;2024-01-16T02:33:23;9.60;;;3.40;;
9597;SDS011;4837;50.890;4.724;2024-01-16T02:35:49;8.57;;;3.73;;
9597;SDS011;4837;50.890;4.724;2024-01-16T02:38:16;14.50;;;4.00;;
9597;SDS011;4837;50.890;4.724;2024-01-16T02:40:42;9.67;;;4.07;;
9597;SDS011;4837;50.890;4.724;2024-01-16T02:43:08;9.87;;;4.00;;
9597;SDS011;4837;50.890;4.724;2024-01-16T02:45:35;9.50;;;3.87;;
9597;SDS011;4837;50.890;4.724;2024-01-16T02:48:02;8.40;;;3.80;;
9597;SDS011;4837;50.890;4.724;2024-01-16T02:50:28;10.53;;;3.93;;
9597;SDS011;4837;50.890;4.724;2024-01-16T02:52:54;6.60;;;3.63;;
9597;SDS011;4837;50.890;4.724;2024-01-16T02:55:20;8.80;;;3.70;;
9597;SDS011;4837;50.890;4.724;2024-01-16T02:57:47;7.23;;;3.47;;
9597;SDS011;4837;50.890;4.724;2024-01-16T03:00:13;8.70;;;3.37;;
9597;SDS011;4837;50.890;4.724;2024-01-16T03:02:39;8.47;;;3.67;;
9597;SDS011;4837;50.890;4.724;2024-01-16T03:05:06;8.03;;;3.43;;
9597;SDS011;4837;50.890;4.724;2024-01-16T03:07:32;8.90;;;3.27;;
9597;SDS011;4837;50.890;4.724;2024-01-16T03:09:58;9.60;;;4.10;;
9597;SDS011;4837;50.890;4.724;2024-01-16T03:12:24;7.17;;;3.40;;
9597;SDS011;4837;50.890;4.724;2024-01-16T03:14:50;7.20;;;2.87;;
9597;SDS011;4837;50.890;4.724;2024-01-16T03:17:18;7.87;;;3.70;;
9597;SDS011;4837;50.890;4.724;2024-01-16T03:19:44;6.17;;;3.60;;
9597;SDS011;4837;50.890;4.724;2024-01-16T03:22:11;7.77;;;3.47;;
9597;SDS011;4837;50.890;4.724;2024-01-16T03:24:38;9.20;;;3.60;;
9597;SDS011;4837;50.890;4.724;2024-01-16T03:27:04;10.67;;;3.37;;
9597;SDS011;4837;50.890;4.724;2024-01-16T03:29:30;12.07;;;4.30;;
9597;SDS011;4837;50.890;4.724;2024-01-16T03:31:58;7.70;;;3.73;;
9597;SDS011;4837;50.890;4.724;2024-01-16T03:34:24;6.07;;;3.00;;
9597;SDS011;4837;50.890;4.724;2024-01-16T03:36:50;8.63;;;3.10;;
9597;SDS011;4837;50.890;4.724;2024-01-16T03:39:16;7.17;;;3.00;;
9597;SDS011;4837;50.890;4.724;2024-01-16T03:41:43;8.13;;;2.70;;
9597;SDS011;4837;50.890;4.724;2024-01-16T03:44:09;5.67;;;3.10;;
9597;SDS011;4837;50.890;4.724;2024-01-16T03:46:35;5.93;;;3.30;;
9597;SDS011;4837;50.890;4.724;2024-01-16T03:49:02;11.30;;;3.43;;
9597;SDS011;4837;50.890;4.724;2024-01-16T03:51:28;6.17;;;2.90;;
9597;SDS011;4837;50.890;4.724;2024-01-16T03:53:54;7.90;;;3.20;;
9597;SDS011;4837;50.890;4.724;2024-01-16T03:56:20;8.73;;;3.57;;
9597;SDS011;4837;50.890;4.724;2024-01-16T03:58:46;7.63;;;3.03;;
9597;SDS011;4837;50.890;4.724;2024-01-16T04:01:12;8.33;;;3.77;;
9597;SDS011;4837;50.890;4.724;2024-01-16T04:03:39;11.97;;;3.73;;
9597;SDS011;4837;50.890;4.724;2024-01-16T04:06:17;6.43;;;3.50;;
9597;SDS011;4837;50.890;4.724;2024-01-16T04:08:44;9.73;;;3.83;;
9597;SDS011;4837;50.890;4.724;2024-01-16T04:11:14;6.67;;;3.27;;
9597;SDS011;4837;50.890;4.724;2024-01-16T04:13:40;6.20;;;3.43;;
9597;SDS011;4837;50.890;4.724;2024-01-16T04:16:07;8.83;;;3.53;;
9597;SDS011;4837;50.890;4.724;2024-01-16T04:18:36;11.83;;;3.97;;
9597;SDS011;4837;50.890;4.724;2024-01-16T04:21:03;6.40;;;3.60;;
9597;SDS011;4837;50.890;4.724;2024-01-16T04:23:29;9.87;;;3.17;;
9597;SDS011;4837;50.890;4.724;2024-01-16T04:25:55;8.67;;;4.27;;
9597;SDS011;4837;50.890;4.724;2024-01-16T04:28:21;8.33;;;3.43;;
9597;SDS011;4837;50.890;4.724;2024-01-16T04:30:48;10.03;;;3.50;;
9597;SDS011;4837;50.890;4.724;2024-01-16T04:33:14;12.90;;;4.00;;
9597;SDS011;4837;50.890;4.724;2024-01-16T04:35:40;11.13;;;3.73;;
9597;SDS011;4837;50.890;4.724;2024-01-16T04:38:07;7.83;;;3.13;;
9597;SDS011;4837;50.890;4.724;2024-01-16T04:40:33;9.67;;;3.27;;
9597;SDS011;4837;50.890;4.724;2024-01-16T04:43:00;6.83;;;3.60;;
9597;SDS011;4837;50.890;4.724;2024-01-16T04:45:26;9.50;;;3.40;;
9597;SDS011;4837;50.890;4.724;2024-01-16T04:47:52;7.63;;;3.57;;
9597;SDS011;4837;50.890;4.724;2024-01-16T04:50:18;7.67;;;3.83;;
9597;SDS011;4837;50.890;4.724;2024-01-16T04:52:44;9.20;;;3.90;;
9597;SDS011;4837;50.890;4.724;2024-01-16T04:55:10;11.00;;;3.53;;
9597;SDS011;4837;50.890;4.724;2024-01-16T04:57:36;10.13;;;4.00;;
9597;SDS011;4837;50.890;4.724;2024-01-16T05:00:03;7.63;;;3.83;;
9597;SDS011;4837;50.890;4.724;2024-01-16T05:02:34;7.03;;;3.60;;
9597;SDS011;4837;50.890;4.724;2024-01-16T05:05:01;9.50;;;3.97;;
9597;SDS011;4837;50.890;4.724;2024-01-16T05:07:27;7.67;;;4.10;;
9597;SDS011;4837;50.890;4.724;2024-01-16T05:09:53;10.00;;;4.17;;
9597;SDS011;4837;50.890;4.724;2024-01-16T05:12:20;11.97;;;4.50;;
9597;SDS011;4837;50.890;4.724;2024-01-16T05:14:47;12.70;;;5.57;;
9597;SDS011;4837;50.890;4.724;2024-01-16T05:17:13;9.10;;;4.03;;
9597;SDS011;4837;50.890;4.724;2024-01-16T05:19:39;8.13;;;3.53;;
9597;SDS011;4837;50.890;4.724;2024-01-16T05:22:06;10.37;;;4.10;;
9597;SDS011;4837;50.890;4.724;2024-01-16T05:24:32;10.93;;;4.23;;
9597;SDS011;4837;50.890;4.724;2024-01-16T05:26:58;8.67;;;4.00;;
9597;SDS011;4837;50.890;4.724;2024-01-16T05:29:24;8.10;;;4.30;;
9597;SDS011;4837;50.890;4.724;2024-01-16T05:31:50;10.43;;;4.80;;
9597;SDS011;4837;50.890;4.724;2024-01-16T05:34:17;10.93;;;4.40;;
9597;SDS011;4837;50.890;4.724;2024-01-16T05:36:43;13.13;;;5.00;;
9597;SDS011;4837;50.890;4.724;2024-01-16T05:39:09;9.27;;;4.27;;
9597;SDS011;4837;50.890;4.724;2024-01-16T05:41:35;14.07;;;4.83;;
9597;SDS011;4837;50.890;4.724;2024-01-16T05:44:02;12.60;;;4.63;;
9597;SDS011;4837;50.890;4.724;2024-01-16T05:46:31;11.27;;;4.63;;
9597;SDS011;4837;50.890;4.724;2024-01-16T05:48:58;10.43;;;4.37;;
9597;SDS011;4837;50.890;4.724;2024-01-16T05:51:24;9.63;;;4.53;;
9597;SDS011;4837;50.890;4.724;2024-01-16T05:53:51;10.33;;;4.93;;
9597;SDS011;4837;50.890;4.724;2024-01-16T05:56:17;8.97;;;4.67;;
9597;SDS011;4837;50.890;4.724;2024-01-16T05:58:43;10.27;;;4.63;;
9597;SDS011;4837;50.890;4.724;2024-01-16T06:01:09;15.30;;;5.33;;
9597;SDS011;4837;50.890;4.724;2024-01-16T06:03:38;11.53;;;4.93;;
9597;SDS011;4837;50.890;4.724;2024-01-16T06:06:05;8.57;;;4.23;;
9597;SDS011;4837;50.890;4.724;2024-01-16T06:08:32;8.77;;;4.53;;
9597;SDS011;4837;50.890;4.724;2024-01-16T06:10:58;11.80;;;4.80;;
9597;SDS011;4837;50.890;4.724;2024-01-16T06:13:24;13.17;;;4.67;;
9597;SDS011;4837;50.890;4.724;2024-01-16T06:15:51;11.00;;;5.40;;
9597;SDS011;4837;50.890;4.724;2024-01-16T06:18:17;15.27;;;5.03;;
9597;SDS011;4837;50.890;4.724;2024-01-16T06:20:43;9.17;;;4.87;;
9597;SDS011;4837;50.890;4.724;2024-01-16T06:23:09;11.10;;;4.83;;
9597;SDS011;4837;50.890;4.724;2024-01-16T06:25:35;11.87;;;4.90;;
9597;SDS011;4837;50.890;4.724;2024-01-16T06:28:01;9.03;;;4.63;;
9597;SDS011;4837;50.890;4.724;2024-01-16T06:30:28;8.33;;;4.83;;
9597;SDS011;4837;50.890;4.724;2024-01-16T06:32:54;12.13;;;5.07;;
9597;SDS011;4837;50.890;4.724;2024-01-16T06:35:22;14.07;;;5.03;;
9597;SDS011;4837;50.890;4.724;2024-01-16T06:37:48;11.17;;;5.30;;
9597;SDS011;4837;50.890;4.724;2024-01-16T06:40:15;12.93;;;5.90;;
9597;SDS011;4837;50.890;4.724;2024-01-16T06:42:41;14.53;;;5.47;;
9597;SDS011;4837;50.890;4.724;2024-01-16T06:45:07;10.87;;;5.07;;
9597;SDS011;4837;50.890;4.724;2024-01-16T06:47:33;10.07;;;4.97;;
9597;SDS011;4837;50.890;4.724;2024-01-16T06:49:59;10.33;;;5.50;;
9597;SDS011;4837;50.890;4.724;2024-01-16T06:52:26;10.97;;;6.00;;
9597;SDS011;4837;50.890;4.724;2024-01-16T06:54:52;9.40;;;5.03;;
9597;SDS011;4837;50.890;4.724;2024-01-16T06:57:18;9.53;;;4.83;;
9597;SDS011;4837;50.890;4.724;2024-01-16T06:59:44;9.77;;;5.13;;
9597;SDS011;4837;50.890;4.724;2024-01-16T07:02:11;15.60;;;5.17;;
9597;SDS011;4837;50.890;4.724;2024-01-16T07:04:37;10.47;;;5.30;;
9597;SDS011;4837;50.890;4.724;2024-01-16T07:07:03;12.40;;;5.37;;
9597;SDS011;4837;50.890;4.724;2024-01-16T07:09:29;9.63;;;4.57;;
9597;SDS011;4837;50.890;4.724;2024-01-16T07:11:55;13.80;;;4.90;;
9597;SDS011;4837;50.890;4.724;2024-01-16T07:14:22;15.50;;;5.30;;
9597;SDS011;4837;50.890;4.724;2024-01-16T07:16:48;11.40;;;5.43;;
9597;SDS011;4837;50.890;4.724;2024-01-16T07:19:15;9.63;;;4.83;;
9597;SDS011;4837;50.890;4.724;2024-01-16T07:21:41;11.60;;;4.73;;
9597;SDS011;4837;50.890;4.724;2024-01-16T07:24:07;11.07;;;4.73;;
9597;SDS011;4837;50.890;4.724;2024-01-16T07:26:34;9.77;;;4.77;;
9597;SDS011;4837;50.890;4.724;2024-01-16T07:29:00;8.17;;;4.10;;
9597;SDS011;4837;50.890;4.724;2024-01-16T07:31:26;11.87;;;5.23;;
9597;SDS011;4837;50.890;4.724;2024-01-16T07:33:52;9.93;;;4.47;;
9597;SDS011;4837;50.890;4.724;2024-01-16T07:36:18;12.97;;;4.50;;
9597;SDS011;4837;50.890;4.724;2024-01-16T07:38:45;11.37;;;5.07;;
9597;SDS011;4837;50.890;4.724;2024-01-16T07:41:11;13.80;;;5.10;;
9597;SDS011;4837;50.890;4.724;2024-01-16T07:43:37;8.67;;;4.30;;
9597;SDS011;4837;50.890;4.724;2024-01-16T07:46:03;10.30;;;4.00;;
9597;SDS011;4837;50.890;4.724;2024-01-16T07:48:29;9.57;;;4.73;;
9597;SDS011;4837;50.890;4.724;2024-01-16T07:50:55;10.63;;;4.37;;
9597;SDS011;4837;50.890;4.724;2024-01-16T07:53:21;9.33;;;4.60;;
9597;SDS011;4837;50.890;4.724;2024-01-16T07:55:48;10.37;;;4.40;;
9597;SDS011;4837;50.890;4.724;2024-01-16T07:58:14;8.43;;;4.40;;
9597;SDS011;4837;50.890;4.724;2024-01-16T08:00:40;12.67;;;5.30;;
9597;SDS011;4837;50.890;4.724;2024-01-16T08:03:07;11.57;;;4.73;;
9597;SDS011;4837;50.890;4.724;2024-01-16T08:05:34;8.33;;;4.90;;
9597;SDS011;4837;50.890;4.724;2024-01-16T08:08:00;12.50;;;4.70;;
9597;SDS011;4837;50.890;4.724;2024-01-16T08:10:26;11.03;;;4.57;;
9597;SDS011;4837;50.890;4.724;2024-01-16T08:12:52;12.53;;;5.40;;
9597;SDS011;4837;50.890;4.724;2024-01-16T08:15:18;13.87;;;5.00;;
9597;SDS011;4837;50.890;4.724;2024-01-16T08:17:45;7.20;;;4.30;;
9597;SDS011;4837;50.890;4.724;2024-01-16T08:20:11;10.20;;;4.90;;
9597;SDS011;4837;50.890;4.724;2024-01-16T08:22:38;8.37;;;4.57;;
9597;SDS011;4837;50.890;4.724;2024-01-16T08:25:04;10.90;;;5.17;;
9597;SDS011;4837;50.890;4.724;2024-01-16T08:27:30;8.27;;;4.13;;
9597;SDS011;4837;50.890;4.724;2024-01-16T08:29:57;9.83;;;4.23;;
9597;SDS011;4837;50.890;4.724;2024-01-16T08:32:23;9.57;;;5.23;;
9597;SDS011;4837;50.890;4.724;2024-01-16T08:34:49;10.53;;;5.03;;
9597;SDS011;4837;50.890;4.724;2024-01-16T08:37:15;9.77;;;4.30;;
9597;SDS011;4837;50.890;4.724;2024-01-16T08:39:41;11.30;;;4.50;;
9597;SDS011;4837;50.890;4.724;2024-01-16T08:42:08;8.33;;;5.10;;
9597;SDS011;4837;50.890;4.724;2024-01-16T08:44:40;9.10;;;4.57;;
9597;SDS011;4837;50.890;4.724;2024-01-16T08:47:07;8.50;;;4.90;;
9597;SDS011;4837;50.890;4.724;2024-01-16T08:49:33;9.93;;;5.23;;
9597;SDS011;4837;50.890;4.724;2024-01-16T08:51:59;9.60;;;5.00;;
9597;SDS011;4837;50.890;4.724;2024-01-16T08:54:25;7.33;;;5.00;;
9597;SDS011;4837;50.890;4.724;2024-01-16T08:56:52;7.07;;;4.50;;
9597;SDS011;4837;50.890;4.724;2024-01-16T08:59:18;8.53;;;4.20;;
9597;SDS011;4837;50.890;4.724;2024-01-16T09:01:44;9.97;;;4.37;;
9597;SDS011;4837;50.890;4.724;2024-01-16T09:04:10;7.77;;;4.60;;
9597;SDS011;4837;50.890;4.724;2024-01-16T09:06:37;7.67;;;4.30;;
9597;SDS011;4837;50.890;4.724;2024-01-16T09:09:03;12.00;;;4.50;;
9597;SDS011;4837;50.890;4.724;2024-01-16T09:11:30;14.17;;;4.83;;
9597;SDS011;4837;50.890;4.724;2024-01-16T09:13:57;9.07;;;4.47;;
9597;SDS011;4837;50.890;4.724;2024-01-16T09:16:23;10.90;;;3.97;;
9597;SDS011;4837;50.890;4.724;2024-01-16T09:18:49;9.30;;;4.30;;
9597;SDS011;4837;50.890;4.724;2024-01-16T09:21:15;10.90;;;4.73;;
9597;SDS011;4837;50.890;4.724;2024-01-16T09:23:42;11.60;;;4.63;;
9597;SDS011;4837;50.890;4.724;2024-01-16T09:26:09;6.50;;;3.87;;
9597;SDS011;4837;50.890;4.724;2024-01-16T09:28:35;7.87;;;4.17;;
9597;SDS011;4837;50.890;4.724;2024-01-16T09:31:01;8.50;;;4.23;;
9597;SDS011;4837;50.890;4.724;2024-01-16T09:33:29;9.83;;;4.10;;
9597;SDS011;4837;50.890;4.724;2024-01-16T09:35:55;7.73;;;3.80;;
9597;SDS011;4837;50.890;4.724;2024-01-16T09:38:21;10.93;;;4.53;;
9597;SDS011;4837;50.890;4.724;2024-01-16T09:40:47;9.03;;;4.37;;
9597;SDS011;4837;50.890;4.724;2024-01-16T09:43:13;6.90;;;3.70;;
9597;SDS011;4837;50.890;4.724;2024-01-16T09:45:39;8.30;;;3.90;;
9597;SDS011;4837;50.890;4.724;2024-01-16T09:48:06;9.60;;;4.00;;
9597;SDS011;4837;50.890;4.724;2024-01-16T09:50:33;8.37;;;3.87;;
9597;SDS011;4837;50.890;4.724;2024-01-16T09:53:00;10.67;;;4.50;;
9597;SDS011;4837;50.890;4.724;2024-01-16T09:55:26;10.43;;;4.40;;
9597;SDS011;4837;50.890;4.724;2024-01-16T09:57:53;8.90;;;4.33;;
9597;SDS011;4837;50.890;4.724;2024-01-16T10:00:19;7.20;;;4.03;;
9597;SDS011;4837;50.890;4.724;2024-01-16T10:02:46;9.13;;;4.67;;
9597;SDS011;4837;50.890;4.724;2024-01-16T10:05:13;7.67;;;4.20;;
9597;SDS011;4837;50.890;4.724;2024-01-16T10:07:40;7.73;;;3.53;;
9597;SDS011;4837;50.890;4.724;2024-01-16T10:10:09;7.80;;;4.47;;
9597;SDS011;4837;50.890;4.724;2024-01-16T10:12:39;10.93;;;4.47;;
9597;SDS011;4837;50.890;4.724;2024-01-16T10:15:06;9.10;;;4.10;;
9597;SDS011;4837;50.890;4.724;2024-01-16T10:17:39;7.07;;;3.97;;
9597;SDS011;4837;50.890;4.724;2024-01-16T10:20:06;8.63;;;4.20;;
9597;SDS011;4837;50.890;4.724;2024-01-16T10:22:38;9.37;;;3.97;;
9597;SDS011;4837;50.890;4.724;2024-01-16T10:27:30;8.03;;;4.17;;
9597;SDS011;4837;50.890;4.724;2024-01-16T10:29:57;7.47;;;3.93;;
9597;SDS011;4837;50.890;4.724;2024-01-16T10:32:27;8.10;;;3.87;;
9597;SDS011;4837;50.890;4.724;2024-01-16T10:35:04;12.70;;;4.70;;
9597;SDS011;4837;50.890;4.724;2024-01-16T10:37:50;9.13;;;4.20;;
9597;SDS011;4837;50.890;4.724;2024-01-16T10:40:17;7.67;;;3.93;;
9597;SDS011;4837;50.890;4.724;2024-01-16T10:42:44;7.83;;;4.50;;
9597;SDS011;4837;50.890;4.724;2024-01-16T10:45:20;8.60;;;4.07;;
9597;SDS011;4837;50.890;4.724;2024-01-16T10:47:47;7.97;;;3.87;;
9597;SDS011;4837;50.890;4.724;2024-01-16T10:50:13;7.50;;;4.00;;
9597;SDS011;4837;50.890;4.724;2024-01-16T10:52:44;7.57;;;4.13;;
9597;SDS011;4837;50.890;4.724;2024-01-16T10:55:14;9.90;;;3.90;;
9597;SDS011;4837;50.890;4.724;2024-01-16T10:57:43;6.57;;;3.90;;
9597;SDS011;4837;50.890;4.724;2024-01-16T11:00:09;9.33;;;3.43;;
9597;SDS011;4837;50.890;4.724;2024-01-16T11:02:43;10.23;;;4.43;;
9597;SDS011;4837;50.890;4.724;2024-01-16T11:05:10;9.17;;;3.53;;
9597;SDS011;4837;50.890;4.724;2024-01-16T11:07:37;8.93;;;3.73;;
9597;SDS011;4837;50.890;4.724;2024-01-16T11:10:05;7.23;;;3.40;;
9597;SDS011;4837;50.890;4.724;2024-01-16T11:12:31;8.33;;;3.70;;
9597;SDS011;4837;50.890;4.724;2024-01-16T11:14:59;8.93;;;3.40;;
9597;SDS011;4837;50.890;4.724;2024-01-16T11:17:32;7.33;;;3.53;;
9597;SDS011;4837;50.890;4.724;2024-01-16T11:20:00;10.90;;;3.50;;
9597;SDS011;4837;50.890;4.724;2024-01-16T11:22:31;6.43;;;3.20;;
9597;SDS011;4837;50.890;4.724;2024-01-16T11:25:57;8.23;;;3.60;;
9597;SDS011;4837;50.890;4.724;2024-01-16T11:27:53;7.20;;;2.90;;
9597;SDS011;4837;50.890;4.724;2024-01-16T11:30:29;7.27;;;3.10;;
9597;SDS011;4837;50.890;4.724;2024-01-16T11:32:56;9.73;;;3.10;;
9597;SDS011;4837;50.890;4.724;2024-01-16T11:38:15;6.90;;;2.80;;
9597;SDS011;4837;50.890;4.724;2024-01-16T11:40:41;6.03;;;2.83;;
9597;SDS011;4837;50.890;4.724;2024-01-16T11:45:53;4.77;;;2.43;;
9597;SDS011;4837;50.890;4.724;2024-01-16T11:48:19;6.20;;;2.90;;
9597;SDS011;4837;50.890;4.724;2024-01-16T11:50:45;6.57;;;2.87;;
9597;SDS011;4837;50.890;4.724;2024-01-16T11:56:15;5.83;;;2.80;;
9597;SDS011;4837;50.890;4.724;2024-01-16T12:01:17;4.47;;;2.67;;
9597;SDS011;4837;50.890;4.724;2024-01-16T12:04:01;5.77;;;2.80;;
9597;SDS011;4837;50.890;4.724;2024-01-16T12:06:27;4.60;;;2.67;;
9597;SDS011;4837;50.890;4.724;2024-01-16T12:08:53;5.13;;;2.50;;
9597;SDS011;4837;50.890;4.724;2024-01-16T12:11:19;4.57;;;2.57;;
9597;SDS011;4837;50.890;4.724;2024-01-16T12:14:00;5.23;;;2.83;;
9597;SDS011;4837;50.890;4.724;2024-01-16T12:16:26;4.63;;;2.27;;
9597;SDS011;4837;50.890;4.724;2024-01-16T12:19:03;4.57;;;2.80;;
9597;SDS011;4837;50.890;4.724;2024-01-16T12:21:29;7.53;;;2.90;;
9597;SDS011;4837;50.890;4.724;2024-01-16T12:23:56;5.37;;;2.50;;
9597;SDS011;4837;50.890;4.724;2024-01-16T12:26:22;7.27;;;2.80;;
9597;SDS011;4837;50.890;4.724;2024-01-16T12:28:52;5.83;;;2.60;;
9597;SDS011;4837;50.890;4.724;2024-01-16T12:31:18;6.23;;;2.93;;
9597;SDS011;4837;50.890;4.724;2024-01-16T12:33:44;6.57;;;2.93;;
9597;SDS011;4837;50.890;4.724;2024-01-16T12:36:10;8.13;;;2.83;;
9597;SDS011;4837;50.890;4.724;2024-01-16T12:38:37;6.33;;;3.10;;
9597;SDS011;4837;50.890;4.724;2024-01-16T12:41:05;5.23;;;2.50;;
9597;SDS011;4837;50.890;4.724;2024-01-16T12:43:34;6.93;;;3.03;;
9597;SDS011;4837;50.890;4.724;2024-01-16T12:46:02;6.70;;;3.00;;
9597;SDS011;4837;50.890;4.724;2024-01-16T12:48:28;5.37;;;3.13;;
9597;SDS011;4837;50.890;4.724;2024-01-16T12:51:01;6.17;;;2.90;;
9597;SDS011;4837;50.890;4.724;2024-01-16T12:53:28;6.33;;;2.87;;
9597;SDS011;4837;50.890;4.724;2024-01-16T12:55:57;4.97;;;2.80;;
9597;SDS011;4837;50.890;4.724;2024-01-16T12:58:37;6.57;;;3.00;;
9597;SDS011;4837;50.890;4.724;2024-01-16T13:01:21;4.60;;;2.90;;
9597;SDS011;4837;50.890;4.724;2024-01-16T13:03:48;5.43;;;2.60;;
9597;SDS011;4837;50.890;4.724;2024-01-16T13:06:19;9.23;;;3.20;;
9597;SDS011;4837;50.890;4.724;2024-01-16T13:08:49;8.47;;;3.23;;
9597;SDS011;4837;50.890;4.724;2024-01-16T13:11:16;8.87;;;3.50;;
9597;SDS011;4837;50.890;4.724;2024-01-16T13:13:46;5.60;;;3.03;;
9597;SDS011;4837;50.890;4.724;2024-01-16T13:16:16;12.47;;;3.30;;
9597;SDS011;4837;50.890;4.724;2024-01-16T13:18:43;3.93;;;2.40;;
9597;SDS011;4837;50.890;4.724;2024-01-16T13:21:09;4.87;;;2.73;;
9597;SDS011;4837;50.890;4.724;2024-01-16T13:23:35;6.57;;;2.97;;
9597;SDS011;4837;50.890;4.724;2024-01-16T13:26:01;6.67;;;2.60;;
9597;SDS011;4837;50.890;4.724;2024-01-16T13:28:29;5.67;;;2.77;;
9597;SDS011;4837;50.890;4.724;2024-01-16T13:30:56;5.73;;;2.70;;
9597;SDS011;4837;50.890;4.724;2024-01-16T13:33:25;5.30;;;2.77;;
9597;SDS011;4837;50.890;4.724;2024-01-16T13:35:54;6.07;;;2.90;;
9597;SDS011;4837;50.890;4.724;2024-01-16T13:38:21;6.47;;;2.40;;
9597;SDS011;4837;50.890;4.724;2024-01-16T13:40:47;6.83;;;2.67;;
9597;SDS011;4837;50.890;4.724;2024-01-16T13:43:15;4.43;;;2.70;;
9597;SDS011;4837;50.890;4.724;2024-01-16T13:45:41;7.50;;;2.93;;
9597;SDS011;4837;50.890;4.724;2024-01-16T13:48:07;11.80;;;3.20;;
9597;SDS011;4837;50.890;4.724;2024-01-16T13:50:34;6.80;;;2.93;;
9597;SDS011;4837;50.890;4.724;2024-01-16T13:53:01;8.40;;;2.90;;
9597;SDS011;4837;50.890;4.724;2024-01-16T13:55:27;9.33;;;3.03;;
9597;SDS011;4837;50.890;4.724;2024-01-16T13:57:57;5.70;;;2.87;;
9597;SDS011;4837;50.890;4.724;2024-01-16T14:00:23;6.97;;;3.30;;
9597;SDS011;4837;50.890;4.724;2024-01-16T14:02:49;9.43;;;3.20;;
9597;SDS011;4837;50.890;4.724;2024-01-16T14:05:17;7.80;;;2.93;;
9597;SDS011;4837;50.890;4.724;2024-01-16T14:07:44;5.77;;;3.13;;
9597;SDS011;4837;50.890;4.724;2024-01-16T14:10:13;8.07;;;3.37;;
9597;SDS011;4837;50.890;4.724;2024-01-16T14:12:43;8.93;;;2.73;;
9597;SDS011;4837;50.890;4.724;2024-01-16T14:15:17;7.30;;;3.23;;
9597;SDS011;4837;50.890;4.724;2024-01-16T14:17:53;6.47;;;2.67;;
9597;SDS011;4837;50.890;4.724;2024-01-16T14:20:20;4.67;;;2.70;;
9597;SDS011;4837;50.890;4.724;2024-01-16T14:22:51;7.63;;;2.80;;
9597;SDS011;4837;50.890;4.724;2024-01-16T14:25:18;5.20;;;2.77;;
9597;SDS011;4837;50.890;4.724;2024-01-16T14:27:45;5.83;;;2.80;;
9597;SDS011;4837;50.890;4.724;2024-01-16T14:30:11;6.00;;;2.50;;
9597;SDS011;4837;50.890;4.724;2024-01-16T14:32:42;5.50;;;2.67;;
9597;SDS011;4837;50.890;4.724;2024-01-16T14:35:09;6.47;;;2.77;;
9597;SDS011;4837;50.890;4.724;2024-01-16T14:37:36;7.13;;;3.33;;
9597;SDS011;4837;50.890;4.724;2024-01-16T14:40:03;4.00;;;2.07;;
9597;SDS011;4837;50.890;4.724;2024-01-16T14:42:37;8.47;;;2.50;;
9597;SDS011;4837;50.890;4.724;2024-01-16T14:45:03;4.13;;;2.60;;
9597;SDS011;4837;50.890;4.724;2024-01-16T14:47:31;9.23;;;2.93;;
9597;SDS011;4837;50.890;4.724;2024-01-16T14:49:57;10.70;;;2.67;;
9597;SDS011;4837;50.890;4.724;2024-01-16T14:52:23;8.13;;;3.03;;
9597;SDS011;4837;50.890;4.724;2024-01-16T14:54:49;4.23;;;2.67;;
9597;SDS011;4837;50.890;4.724;2024-01-16T14:57:16;4.70;;;2.60;;
9597;SDS011;4837;50.890;4.724;2024-01-16T14:59:42;6.33;;;2.70;;
9597;SDS011;4837;50.890;4.724;2024-01-16T15:02:10;6.17;;;2.70;;
9597;SDS011;4837;50.890;4.724;2024-01-16T15:04:41;6.00;;;2.73;;
9597;SDS011;4837;50.890;4.724;2024-01-16T15:07:08;6.67;;;2.53;;
9597;SDS011;4837;50.890;4.724;2024-01-16T15:09:34;7.23;;;3.13;;
9597;SDS011;4837;50.890;4.724;2024-01-16T15:12:04;7.17;;;3.33;;
9597;SDS011;4837;50.890;4.724;2024-01-16T15:14:31;8.07;;;3.00;;
9597;SDS011;4837;50.890;4.724;2024-01-16T15:16:57;5.40;;;2.93;;
9597;SDS011;4837;50.890;4.724;2024-01-16T15:19:24;5.10;;;3.00;;
9597;SDS011;4837;50.890;4.724;2024-01-16T15:21:50;5.10;;;2.90;;
9597;SDS011;4837;50.890;4.724;2024-01-16T15:24:16;8.20;;;2.93;;
9597;SDS011;4837;50.890;4.724;2024-01-16T15:26:53;8.70;;;3.20;;